sensor_id;sensor_type;location;lat;lon;timestamp;P1;durP1;ratioP1;P2;durP2;ratioP2
5416;SDS011;2731;50.754;12.990;2022-07-15T00:02:09;2.50;;;1.00;;
5416;SDS011;2731;50.754;12.990;2022-07-15T00:04:35;3.90;;;1.13;;
5416;SDS011;2731;50.754;12.990;2022-07-15T00:07:01;5.95;;;1.15;;
5416;SDS011;2731;50.754;12.990;2022-07-15T00:09:26;2.20;;;0.95;;
5416;SDS011;2731;50.754;12.990;2022-07-15T00:12:10;3.17;;;0.93;;
5416;SDS011;2731;50.754;12.990;2022-07-15T00:14:37;1.15;;;0.70;;
5416;SDS011;2731;50.754;12.990;2022-07-15T00:17:02;5.28;;;1.00;;
5416;SDS011;2731;50.754;12.990;2022-07-15T00:19:28;3.05;;;1.30;;
5416;SDS011;2731;50.754;12.990;2022-07-15T00:21:53;8.10;;;0.80;;
5416;SDS011;2731;50.754;12.990;2022-07-15T00:24:18;2.08;;;0.80;;
5416;SDS011;2731;50.754;12.990;2022-07-15T00:26:43;4.57;;;1.03;;
5416;SDS011;2731;50.754;12.990;2022-07-15T00:29:09;2.33;;;0.93;;
5416;SDS011;2731;50.754;12.990;2022-07-15T00:31:35;3.03;;;0.90;;
5416;SDS011;2731;50.754;12.990;2022-07-15T00:34:01;3.78;;;0.80;;
5416;SDS011;2731;50.754;12.990;2022-07-15T00:36:26;3.28;;;0.90;;
5416;SDS011;2731;50.754;12.990;2022-07-15T00:38:51;4.67;;;1.00;;
5416;SDS011;2731;50.754;12.990;2022-07-15T00:41:16;5.73;;;1.03;;
5416;SDS011;2731;50.754;12.990;2022-07-15T00:43:42;4.20;;;0.95;;
5416;SDS011;2731;50.754;12.990;2022-07-15T00:46:07;1.17;;;0.70;;
5416;SDS011;2731;50.754;12.990;2022-07-15T00:48:33;2.45;;;0.60;;
5416;SDS011;2731;50.754;12.990;2022-07-15T00:50:59;1.55;;;0.80;;
5416;SDS011;2731;50.754;12.990;2022-07-15T00:53:24;2.17;;;1.00;;
5416;SDS011;2731;50.754;12.990;2022-07-15T00:55:52;2.22;;;0.82;;
5416;SDS011;2731;50.754;12.990;2022-07-15T00:58:22;2.80;;;0.98;;
5416;SDS011;2731;50.754;12.990;2022-07-15T01:00:48;1.35;;;0.80;;
5416;SDS011;2731;50.754;12.990;2022-07-15T01:03:15;1.90;;;0.70;;
5416;SDS011;2731;50.754;12.990;2022-07-15T01:05:41;4.10;;;1.10;;
5416;SDS011;2731;50.754;12.990;2022-07-15T01:08:06;2.30;;;0.90;;
5416;SDS011;2731;50.754;12.990;2022-07-15T01:10:32;2.40;;;1.13;;
5416;SDS011;2731;50.754;12.990;2022-07-15T01:12:59;3.70;;;0.85;;
5416;SDS011;2731;50.754;12.990;2022-07-15T01:15:27;2.38;;;0.60;;
5416;SDS011;2731;50.754;12.990;2022-07-15T01:17:53;2.95;;;0.85;;
5416;SDS011;2731;50.754;12.990;2022-07-15T01:20:18;1.08;;;0.80;;
5416;SDS011;2731;50.754;12.990;2022-07-15T01:22:44;3.13;;;1.40;;
5416;SDS011;2731;50.754;12.990;2022-07-15T01:25:09;2.33;;;1.00;;
5416;SDS011;2731;50.754;12.990;2022-07-15T01:27:34;1.47;;;0.87;;
5416;SDS011;2731;50.754;12.990;2022-07-15T01:29:59;1.10;;;1.00;;
5416;SDS011;2731;50.754;12.990;2022-07-15T01:32:25;1.83;;;1.02;;
5416;SDS011;2731;50.754;12.990;2022-07-15T01:34:50;3.40;;;1.10;;
5416;SDS011;2731;50.754;12.990;2022-07-15T01:37:16;2.28;;;1.00;;
5416;SDS011;2731;50.754;12.990;2022-07-15T01:39:42;1.25;;;0.90;;
5416;SDS011;2731;50.754;12.990;2022-07-15T01:42:07;3.15;;;0.80;;
5416;SDS011;2731;50.754;12.990;2022-07-15T01:44:34;1.58;;;0.90;;
5416;SDS011;2731;50.754;12.990;2022-07-15T01:47:00;2.20;;;1.10;;
5416;SDS011;2731;50.754;12.990;2022-07-15T01:49:25;2.72;;;1.05;;
5416;SDS011;2731;50.754;12.990;2022-07-15T01:51:54;2.10;;;0.95;;
5416;SDS011;2731;50.754;12.990;2022-07-15T01:54:20;1.90;;;1.10;;
5416;SDS011;2731;50.754;12.990;2022-07-15T01:56:46;2.42;;;1.02;;
5416;SDS011;2731;50.754;12.990;2022-07-15T01:59:12;3.67;;;0.82;;
5416;SDS011;2731;50.754;12.990;2022-07-15T02:01:39;1.10;;;1.00;;
5416;SDS011;2731;50.754;12.990;2022-07-15T02:04:04;3.55;;;1.23;;
5416;SDS011;2731;50.754;12.990;2022-07-15T02:06:29;3.47;;;0.93;;
5416;SDS011;2731;50.754;12.990;2022-07-15T02:08:55;3.20;;;1.20;;
5416;SDS011;2731;50.754;12.990;2022-07-15T02:11:22;5.15;;;1.10;;
5416;SDS011;2731;50.754;12.990;2022-07-15T02:13:47;2.17;;;1.10;;
5416;SDS011;2731;50.754;12.990;2022-07-15T02:16:12;2.88;;;1.13;;
5416;SDS011;2731;50.754;12.990;2022-07-15T02:18:38;2.67;;;1.27;;
5416;SDS011;2731;50.754;12.990;2022-07-15T02:21:03;6.07;;;1.40;;
5416;SDS011;2731;50.754;12.990;2022-07-15T02:23:28;2.90;;;1.13;;
5416;SDS011;2731;50.754;12.990;2022-07-15T02:25:54;3.28;;;0.93;;
5416;SDS011;2731;50.754;12.990;2022-07-15T02:28:21;1.98;;;1.33;;
5416;SDS011;2731;50.754;12.990;2022-07-15T02:30:46;2.55;;;1.13;;
5416;SDS011;2731;50.754;12.990;2022-07-15T02:33:11;3.45;;;0.90;;
5416;SDS011;2731;50.754;12.990;2022-07-15T02:35:40;3.90;;;1.20;;
5416;SDS011;2731;50.754;12.990;2022-07-15T02:38:06;3.10;;;1.25;;
5416;SDS011;2731;50.754;12.990;2022-07-15T02:40:33;3.00;;;1.20;;
5416;SDS011;2731;50.754;12.990;2022-07-15T02:42:59;2.55;;;0.85;;
5416;SDS011;2731;50.754;12.990;2022-07-15T02:45:25;4.35;;;1.10;;
5416;SDS011;2731;50.754;12.990;2022-07-15T02:47:52;1.65;;;1.08;;
5416;SDS011;2731;50.754;12.990;2022-07-15T02:50:18;1.95;;;1.23;;
5416;SDS011;2731;50.754;12.990;2022-07-15T02:52:43;2.40;;;1.00;;
5416;SDS011;2731;50.754;12.990;2022-07-15T02:55:09;1.63;;;1.13;;
5416;SDS011;2731;50.754;12.990;2022-07-15T02:57:35;3.33;;;1.67;;
5416;SDS011;2731;50.754;12.990;2022-07-15T03:00:01;2.42;;;1.10;;
5416;SDS011;2731;50.754;12.990;2022-07-15T03:02:26;2.55;;;1.00;;
5416;SDS011;2731;50.754;12.990;2022-07-15T03:04:51;1.25;;;1.10;;
5416;SDS011;2731;50.754;12.990;2022-07-15T03:07:18;2.45;;;1.40;;
5416;SDS011;2731;50.754;12.990;2022-07-15T03:09:44;3.72;;;1.10;;
5416;SDS011;2731;50.754;12.990;2022-07-15T03:12:09;2.95;;;1.33;;
5416;SDS011;2731;50.754;12.990;2022-07-15T03:14:34;4.70;;;1.27;;
5416;SDS011;2731;50.754;12.990;2022-07-15T03:16:59;4.47;;;1.17;;
5416;SDS011;2731;50.754;12.990;2022-07-15T03:19:25;2.47;;;1.00;;
5416;SDS011;2731;50.754;12.990;2022-07-15T03:21:50;1.52;;;1.00;;
5416;SDS011;2731;50.754;12.990;2022-07-15T03:24:15;1.80;;;1.10;;
5416;SDS011;2731;50.754;12.990;2022-07-15T03:26:41;2.45;;;1.00;;
5416;SDS011;2731;50.754;12.990;2022-07-15T03:29:06;2.85;;;1.38;;
5416;SDS011;2731;50.754;12.990;2022-07-15T03:31:31;3.10;;;0.90;;
5416;SDS011;2731;50.754;12.990;2022-07-15T03:33:57;2.80;;;1.17;;
5416;SDS011;2731;50.754;12.990;2022-07-15T03:36:22;2.85;;;1.00;;
5416;SDS011;2731;50.754;12.990;2022-07-15T03:38:52;3.20;;;1.17;;
5416;SDS011;2731;50.754;12.990;2022-07-15T03:41:18;3.75;;;1.10;;
5416;SDS011;2731;50.754;12.990;2022-07-15T03:43:45;1.60;;;1.15;;
5416;SDS011;2731;50.754;12.990;2022-07-15T03:46:11;3.55;;;1.20;;
5416;SDS011;2731;50.754;12.990;2022-07-15T03:48:39;4.93;;;1.48;;
5416;SDS011;2731;50.754;12.990;2022-07-15T03:51:04;1.75;;;1.13;;
5416;SDS011;2731;50.754;12.990;2022-07-15T03:53:30;2.03;;;1.00;;
5416;SDS011;2731;50.754;12.990;2022-07-15T03:55:55;1.35;;;0.80;;
5416;SDS011;2731;50.754;12.990;2022-07-15T03:58:21;2.53;;;1.10;;
5416;SDS011;2731;50.754;12.990;2022-07-15T04:00:48;2.83;;;1.10;;
5416;SDS011;2731;50.754;12.990;2022-07-15T04:03:13;1.30;;;1.10;;
5416;SDS011;2731;50.754;12.990;2022-07-15T04:05:40;2.00;;;1.20;;
5416;SDS011;2731;50.754;12.990;2022-07-15T04:08:05;2.25;;;1.02;;
5416;SDS011;2731;50.754;12.990;2022-07-15T04:10:30;2.25;;;1.40;;
5416;SDS011;2731;50.754;12.990;2022-07-15T04:12:57;1.98;;;1.10;;
5416;SDS011;2731;50.754;12.990;2022-07-15T04:15:22;4.38;;;1.73;;
5416;SDS011;2731;50.754;12.990;2022-07-15T04:17:47;5.22;;;1.42;;
5416;SDS011;2731;50.754;12.990;2022-07-15T04:20:14;6.43;;;1.58;;
5416;SDS011;2731;50.754;12.990;2022-07-15T04:22:40;2.95;;;1.08;;
5416;SDS011;2731;50.754;12.990;2022-07-15T04:25:07;1.70;;;1.35;;
5416;SDS011;2731;50.754;12.990;2022-07-15T04:27:33;4.82;;;1.13;;
5416;SDS011;2731;50.754;12.990;2022-07-15T04:29:59;3.60;;;1.27;;
5416;SDS011;2731;50.754;12.990;2022-07-15T04:32:24;4.22;;;2.05;;
5416;SDS011;2731;50.754;12.990;2022-07-15T04:34:51;2.63;;;1.27;;
5416;SDS011;2731;50.754;12.990;2022-07-15T04:37:16;4.28;;;1.50;;
5416;SDS011;2731;50.754;12.990;2022-07-15T04:39:41;5.68;;;1.20;;
5416;SDS011;2731;50.754;12.990;2022-07-15T04:42:08;7.53;;;1.57;;
5416;SDS011;2731;50.754;12.990;2022-07-15T04:44:33;1.52;;;1.25;;
5416;SDS011;2731;50.754;12.990;2022-07-15T04:46:58;5.13;;;1.90;;
5416;SDS011;2731;50.754;12.990;2022-07-15T04:49:23;2.80;;;1.38;;
5416;SDS011;2731;50.754;12.990;2022-07-15T04:52:08;5.10;;;1.60;;
5416;SDS011;2731;50.754;12.990;2022-07-15T04:54:33;2.10;;;1.20;;
5416;SDS011;2731;50.754;12.990;2022-07-15T04:56:59;3.35;;;1.58;;
5416;SDS011;2731;50.754;12.990;2022-07-15T04:59:24;4.75;;;1.55;;
5416;SDS011;2731;50.754;12.990;2022-07-15T05:01:50;2.90;;;1.53;;
5416;SDS011;2731;50.754;12.990;2022-07-15T05:04:15;2.85;;;1.70;;
5416;SDS011;2731;50.754;12.990;2022-07-15T05:06:40;6.37;;;1.60;;
5416;SDS011;2731;50.754;12.990;2022-07-15T05:09:05;4.53;;;1.40;;
5416;SDS011;2731;50.754;12.990;2022-07-15T05:11:31;5.38;;;1.80;;
5416;SDS011;2731;50.754;12.990;2022-07-15T05:13:56;5.00;;;1.60;;
5416;SDS011;2731;50.754;12.990;2022-07-15T05:16:22;4.22;;;1.90;;
5416;SDS011;2731;50.754;12.990;2022-07-15T05:18:47;6.57;;;1.80;;
5416;SDS011;2731;50.754;12.990;2022-07-15T05:21:13;4.93;;;1.77;;
5416;SDS011;2731;50.754;12.990;2022-07-15T05:23:38;2.60;;;1.60;;
5416;SDS011;2731;50.754;12.990;2022-07-15T05:26:05;4.85;;;1.85;;
5416;SDS011;2731;50.754;12.990;2022-07-15T05:28:30;5.00;;;1.63;;
5416;SDS011;2731;50.754;12.990;2022-07-15T05:30:55;3.22;;;1.60;;
5416;SDS011;2731;50.754;12.990;2022-07-15T05:33:21;5.55;;;1.55;;
5416;SDS011;2731;50.754;12.990;2022-07-15T05:35:47;3.00;;;1.63;;
5416;SDS011;2731;50.754;12.990;2022-07-15T05:38:13;11.93;;;2.35;;
5416;SDS011;2731;50.754;12.990;2022-07-15T05:40:38;8.80;;;1.95;;
5416;SDS011;2731;50.754;12.990;2022-07-15T05:43:03;3.83;;;1.73;;
5416;SDS011;2731;50.754;12.990;2022-07-15T05:45:29;6.80;;;2.03;;
5416;SDS011;2731;50.754;12.990;2022-07-15T05:47:54;8.30;;;2.20;;
5416;SDS011;2731;50.754;12.990;2022-07-15T05:50:19;4.97;;;1.73;;
5416;SDS011;2731;50.754;12.990;2022-07-15T05:52:45;3.03;;;1.40;;
5416;SDS011;2731;50.754;12.990;2022-07-15T05:55:10;5.95;;;2.00;;
5416;SDS011;2731;50.754;12.990;2022-07-15T05:57:35;7.88;;;1.48;;
5416;SDS011;2731;50.754;12.990;2022-07-15T06:00:01;4.13;;;2.13;;
5416;SDS011;2731;50.754;12.990;2022-07-15T06:02:26;4.47;;;1.48;;
5416;SDS011;2731;50.754;12.990;2022-07-15T06:04:51;6.10;;;1.90;;
5416;SDS011;2731;50.754;12.990;2022-07-15T06:07:16;6.70;;;1.90;;
5416;SDS011;2731;50.754;12.990;2022-07-15T06:09:42;5.30;;;1.67;;
5416;SDS011;2731;50.754;12.990;2022-07-15T06:12:07;2.97;;;1.40;;
5416;SDS011;2731;50.754;12.990;2022-07-15T06:14:34;3.95;;;1.85;;
5416;SDS011;2731;50.754;12.990;2022-07-15T06:16:59;4.28;;;1.40;;
5416;SDS011;2731;50.754;12.990;2022-07-15T06:19:24;2.90;;;1.70;;
5416;SDS011;2731;50.754;12.990;2022-07-15T06:21:50;9.27;;;2.70;;
5416;SDS011;2731;50.754;12.990;2022-07-15T06:24:15;3.40;;;1.35;;
5416;SDS011;2731;50.754;12.990;2022-07-15T06:26:41;6.18;;;1.73;;
5416;SDS011;2731;50.754;12.990;2022-07-15T06:29:06;4.90;;;1.70;;
5416;SDS011;2731;50.754;12.990;2022-07-15T06:31:32;6.32;;;1.50;;
5416;SDS011;2731;50.754;12.990;2022-07-15T06:33:57;5.40;;;1.67;;
5416;SDS011;2731;50.754;12.990;2022-07-15T06:36:24;6.90;;;1.88;;
5416;SDS011;2731;50.754;12.990;2022-07-15T06:38:50;4.53;;;1.67;;
5416;SDS011;2731;50.754;12.990;2022-07-15T06:41:15;4.82;;;2.17;;
5416;SDS011;2731;50.754;12.990;2022-07-15T06:43:41;5.97;;;2.33;;
5416;SDS011;2731;50.754;12.990;2022-07-15T06:46:07;2.83;;;2.10;;
5416;SDS011;2731;50.754;12.990;2022-07-15T06:48:33;4.65;;;2.40;;
5416;SDS011;2731;50.754;12.990;2022-07-15T06:50:58;2.42;;;2.03;;
5416;SDS011;2731;50.754;12.990;2022-07-15T06:53:24;4.07;;;2.17;;
5416;SDS011;2731;50.754;12.990;2022-07-15T06:55:50;4.85;;;2.13;;
5416;SDS011;2731;50.754;12.990;2022-07-15T06:58:16;4.18;;;2.35;;
5416;SDS011;2731;50.754;12.990;2022-07-15T07:00:42;4.00;;;1.88;;
5416;SDS011;2731;50.754;12.990;2022-07-15T07:03:07;5.35;;;2.20;;
5416;SDS011;2731;50.754;12.990;2022-07-15T07:05:33;5.38;;;2.15;;
5416;SDS011;2731;50.754;12.990;2022-07-15T07:07:58;6.10;;;1.90;;
5416;SDS011;2731;50.754;12.990;2022-07-15T07:10:23;4.22;;;1.98;;
5416;SDS011;2731;50.754;12.990;2022-07-15T07:12:51;5.32;;;2.13;;
5416;SDS011;2731;50.754;12.990;2022-07-15T07:15:16;5.97;;;2.13;;
5416;SDS011;2731;50.754;12.990;2022-07-15T07:17:41;4.53;;;1.73;;
5416;SDS011;2731;50.754;12.990;2022-07-15T07:20:07;4.97;;;1.57;;
5416;SDS011;2731;50.754;12.990;2022-07-15T07:22:32;5.55;;;1.33;;
5416;SDS011;2731;50.754;12.990;2022-07-15T07:24:57;4.95;;;1.98;;
5416;SDS011;2731;50.754;12.990;2022-07-15T07:27:24;3.60;;;1.40;;
5416;SDS011;2731;50.754;12.990;2022-07-15T07:29:50;3.63;;;1.30;;
5416;SDS011;2731;50.754;12.990;2022-07-15T07:32:15;4.93;;;1.60;;
5416;SDS011;2731;50.754;12.990;2022-07-15T07:34:40;4.80;;;1.43;;
5416;SDS011;2731;50.754;12.990;2022-07-15T07:37:06;4.63;;;1.38;;
5416;SDS011;2731;50.754;12.990;2022-07-15T07:39:31;5.65;;;1.25;;
5416;SDS011;2731;50.754;12.990;2022-07-15T07:41:57;3.70;;;1.27;;
5416;SDS011;2731;50.754;12.990;2022-07-15T07:44:22;4.78;;;1.27;;
5416;SDS011;2731;50.754;12.990;2022-07-15T07:46:48;3.97;;;1.30;;
5416;SDS011;2731;50.754;12.990;2022-07-15T07:49:13;6.70;;;1.40;;
5416;SDS011;2731;50.754;12.990;2022-07-15T07:51:39;4.53;;;1.50;;
5416;SDS011;2731;50.754;12.990;2022-07-15T07:54:08;5.18;;;1.08;;
5416;SDS011;2731;50.754;12.990;2022-07-15T07:56:34;4.30;;;1.38;;
5416;SDS011;2731;50.754;12.990;2022-07-15T07:59:00;4.22;;;1.33;;
5416;SDS011;2731;50.754;12.990;2022-07-15T08:01:25;5.63;;;1.88;;
5416;SDS011;2731;50.754;12.990;2022-07-15T08:03:51;3.17;;;1.23;;
5416;SDS011;2731;50.754;12.990;2022-07-15T08:06:17;3.65;;;1.45;;
5416;SDS011;2731;50.754;12.990;2022-07-15T08:08:43;3.55;;;1.63;;
5416;SDS011;2731;50.754;12.990;2022-07-15T08:11:09;4.35;;;1.10;;
5416;SDS011;2731;50.754;12.990;2022-07-15T08:13:34;5.95;;;1.83;;
5416;SDS011;2731;50.754;12.990;2022-07-15T08:15:59;4.55;;;1.25;;
5416;SDS011;2731;50.754;12.990;2022-07-15T08:18:25;5.32;;;1.17;;
5416;SDS011;2731;50.754;12.990;2022-07-15T08:20:50;4.40;;;1.27;;
5416;SDS011;2731;50.754;12.990;2022-07-15T08:23:16;2.85;;;1.48;;
5416;SDS011;2731;50.754;12.990;2022-07-15T08:25:45;6.00;;;1.70;;
5416;SDS011;2731;50.754;12.990;2022-07-15T08:28:11;9.50;;;1.90;;
5416;SDS011;2731;50.754;12.990;2022-07-15T08:30:37;3.03;;;1.35;;
5416;SDS011;2731;50.754;12.990;2022-07-15T08:33:02;4.75;;;1.27;;
5416;SDS011;2731;50.754;12.990;2022-07-15T08:35:28;4.30;;;1.40;;
5416;SDS011;2731;50.754;12.990;2022-07-15T08:37:54;6.72;;;1.40;;
5416;SDS011;2731;50.754;12.990;2022-07-15T08:40:19;4.72;;;1.30;;
5416;SDS011;2731;50.754;12.990;2022-07-15T08:42:45;2.78;;;1.00;;
5416;SDS011;2731;50.754;12.990;2022-07-15T08:45:12;3.38;;;1.05;;
5416;SDS011;2731;50.754;12.990;2022-07-15T08:47:38;2.17;;;1.13;;
5416;SDS011;2731;50.754;12.990;2022-07-15T08:50:04;2.90;;;1.25;;
5416;SDS011;2731;50.754;12.990;2022-07-15T08:52:29;3.22;;;1.10;;
5416;SDS011;2731;50.754;12.990;2022-07-15T08:54:57;5.90;;;1.50;;
5416;SDS011;2731;50.754;12.990;2022-07-15T08:57:23;3.58;;;1.50;;
5416;SDS011;2731;50.754;12.990;2022-07-15T08:59:48;6.05;;;1.27;;
5416;SDS011;2731;50.754;12.990;2022-07-15T09:02:14;11.43;;;1.70;;
5416;SDS011;2731;50.754;12.990;2022-07-15T09:07:27;5.25;;;1.67;;
5416;SDS011;2731;50.754;12.990;2022-07-15T09:09:52;3.77;;;1.40;;
5416;SDS011;2731;50.754;12.990;2022-07-15T09:12:17;3.92;;;1.60;;
5416;SDS011;2731;50.754;12.990;2022-07-15T09:14:44;6.10;;;2.03;;
5416;SDS011;2731;50.754;12.990;2022-07-15T09:22:20;3.55;;;1.35;;
5416;SDS011;2731;50.754;12.990;2022-07-15T09:24:46;2.80;;;1.10;;
5416;SDS011;2731;50.754;12.990;2022-07-15T09:27:30;4.78;;;1.48;;
5416;SDS011;2731;50.754;12.990;2022-07-15T09:29:58;4.33;;;1.60;;
5416;SDS011;2731;50.754;12.990;2022-07-15T09:32:57;4.53;;;1.30;;
5416;SDS011;2731;50.754;12.990;2022-07-15T09:35:41;3.08;;;1.45;;
5416;SDS011;2731;50.754;12.990;2022-07-15T09:38:25;3.47;;;1.90;;
5416;SDS011;2731;50.754;12.990;2022-07-15T09:40:50;3.70;;;1.27;;
5416;SDS011;2731;50.754;12.990;2022-07-15T09:43:15;3.13;;;1.30;;
5416;SDS011;2731;50.754;12.990;2022-07-15T09:45:41;7.97;;;1.50;;
5416;SDS011;2731;50.754;12.990;2022-07-15T09:48:09;2.47;;;1.20;;
5416;SDS011;2731;50.754;12.990;2022-07-15T09:50:37;2.63;;;1.20;;
5416;SDS011;2731;50.754;12.990;2022-07-15T09:53:03;3.38;;;1.60;;
5416;SDS011;2731;50.754;12.990;2022-07-15T09:55:29;5.65;;;1.58;;
5416;SDS011;2731;50.754;12.990;2022-07-15T09:57:56;5.65;;;1.58;;
5416;SDS011;2731;50.754;12.990;2022-07-15T10:00:24;4.03;;;1.88;;
5416;SDS011;2731;50.754;12.990;2022-07-15T10:02:51;5.73;;;1.90;;
5416;SDS011;2731;50.754;12.990;2022-07-15T10:05:16;4.28;;;1.50;;
5416;SDS011;2731;50.754;12.990;2022-07-15T10:07:42;2.77;;;1.53;;
5416;SDS011;2731;50.754;12.990;2022-07-15T10:10:09;3.97;;;1.40;;
5416;SDS011;2731;50.754;12.990;2022-07-15T10:12:43;9.38;;;2.33;;
5416;SDS011;2731;50.754;12.990;2022-07-15T10:15:14;5.88;;;1.70;;
5416;SDS011;2731;50.754;12.990;2022-07-15T10:28:15;4.55;;;1.70;;
5416;SDS011;2731;50.754;12.990;2022-07-15T10:30:42;4.50;;;2.00;;
5416;SDS011;2731;50.754;12.990;2022-07-15T10:35:44;6.25;;;1.73;;
5416;SDS011;2731;50.754;12.990;2022-07-15T10:41:00;7.15;;;1.55;;
5416;SDS011;2731;50.754;12.990;2022-07-15T10:48:48;4.20;;;1.50;;
5416;SDS011;2731;50.754;12.990;2022-07-15T10:53:58;5.55;;;1.45;;
5416;SDS011;2731;50.754;12.990;2022-07-15T10:56:28;4.80;;;1.85;;
5416;SDS011;2731;50.754;12.990;2022-07-15T11:01:40;5.30;;;1.35;;
5416;SDS011;2731;50.754;12.990;2022-07-15T11:06:43;4.78;;;2.08;;
5416;SDS011;2731;50.754;12.990;2022-07-15T11:09:42;4.03;;;1.52;;
5416;SDS011;2731;50.754;12.990;2022-07-15T11:12:05;6.97;;;1.55;;
5416;SDS011;2731;50.754;12.990;2022-07-15T11:14:47;3.72;;;1.65;;
5416;SDS011;2731;50.754;12.990;2022-07-15T11:17:14;4.43;;;1.83;;
5416;SDS011;2731;50.754;12.990;2022-07-15T11:19:41;4.22;;;1.63;;
5416;SDS011;2731;50.754;12.990;2022-07-15T11:22:07;2.92;;;1.25;;
5416;SDS011;2731;50.754;12.990;2022-07-15T11:24:34;3.97;;;1.60;;
5416;SDS011;2731;50.754;12.990;2022-07-15T11:27:00;4.68;;;1.65;;
5416;SDS011;2731;50.754;12.990;2022-07-15T11:29:25;2.38;;;1.35;;
5416;SDS011;2731;50.754;12.990;2022-07-15T11:31:50;6.13;;;1.80;;
5416;SDS011;2731;50.754;12.990;2022-07-15T11:34:16;3.45;;;2.00;;
5416;SDS011;2731;50.754;12.990;2022-07-15T11:36:42;3.38;;;1.60;;
5416;SDS011;2731;50.754;12.990;2022-07-15T11:39:07;5.10;;;1.27;;
5416;SDS011;2731;50.754;12.990;2022-07-15T11:41:32;4.00;;;1.50;;
5416;SDS011;2731;50.754;12.990;2022-07-15T11:44:16;4.50;;;1.52;;
5416;SDS011;2731;50.754;12.990;2022-07-15T11:46:58;4.17;;;1.20;;
5416;SDS011;2731;50.754;12.990;2022-07-15T11:49:31;3.50;;;1.50;;
5416;SDS011;2731;50.754;12.990;2022-07-15T11:51:57;3.17;;;1.30;;
5416;SDS011;2731;50.754;12.990;2022-07-15T11:54:22;3.03;;;1.67;;
5416;SDS011;2731;50.754;12.990;2022-07-15T11:56:58;3.85;;;1.95;;
5416;SDS011;2731;50.754;12.990;2022-07-15T11:59:23;4.38;;;1.85;;
5416;SDS011;2731;50.754;12.990;2022-07-15T12:01:59;2.87;;;1.20;;
5416;SDS011;2731;50.754;12.990;2022-07-15T12:04:27;2.88;;;1.48;;
5416;SDS011;2731;50.754;12.990;2022-07-15T12:06:52;3.33;;;1.58;;
5416;SDS011;2731;50.754;12.990;2022-07-15T12:09:18;2.60;;;1.60;;
5416;SDS011;2731;50.754;12.990;2022-07-15T12:11:43;4.05;;;1.60;;
5416;SDS011;2731;50.754;12.990;2022-07-15T12:14:09;2.20;;;1.60;;
5416;SDS011;2731;50.754;12.990;2022-07-15T12:16:47;4.25;;;1.48;;
5416;SDS011;2731;50.754;12.990;2022-07-15T12:21:42;3.53;;;1.65;;
5416;SDS011;2731;50.754;12.990;2022-07-15T12:24:11;4.55;;;2.00;;
5416;SDS011;2731;50.754;12.990;2022-07-15T12:26:40;1.83;;;1.30;;
5416;SDS011;2731;50.754;12.990;2022-07-15T12:29:08;3.88;;;1.77;;
5416;SDS011;2731;50.754;12.990;2022-07-15T12:31:35;3.55;;;1.63;;
5416;SDS011;2731;50.754;12.990;2022-07-15T12:34:00;4.32;;;1.98;;
5416;SDS011;2731;50.754;12.990;2022-07-15T12:36:27;3.78;;;1.30;;
5416;SDS011;2731;50.754;12.990;2022-07-15T12:42:03;3.95;;;1.23;;
5416;SDS011;2731;50.754;12.990;2022-07-15T12:44:31;3.38;;;1.40;;
5416;SDS011;2731;50.754;12.990;2022-07-15T12:47:00;3.05;;;1.70;;
5416;SDS011;2731;50.754;12.990;2022-07-15T12:52:16;2.85;;;1.55;;
5416;SDS011;2731;50.754;12.990;2022-07-15T12:54:42;4.82;;;1.55;;
5416;SDS011;2731;50.754;12.990;2022-07-15T13:02:16;2.17;;;1.23;;
5416;SDS011;2731;50.754;12.990;2022-07-15T13:04:41;2.60;;;1.50;;
5416;SDS011;2731;50.754;12.990;2022-07-15T13:07:06;5.70;;;1.50;;
5416;SDS011;2731;50.754;12.990;2022-07-15T13:09:31;2.33;;;1.40;;
5416;SDS011;2731;50.754;12.990;2022-07-15T13:12:00;2.20;;;1.27;;
5416;SDS011;2731;50.754;12.990;2022-07-15T13:14:25;3.28;;;1.85;;
5416;SDS011;2731;50.754;12.990;2022-07-15T13:16:51;4.47;;;2.13;;
5416;SDS011;2731;50.754;12.990;2022-07-15T13:19:16;3.90;;;1.33;;
5416;SDS011;2731;50.754;12.990;2022-07-15T13:21:41;3.17;;;1.20;;
5416;SDS011;2731;50.754;12.990;2022-07-15T13:24:06;2.07;;;1.20;;
5416;SDS011;2731;50.754;12.990;2022-07-15T13:26:34;3.80;;;1.33;;
5416;SDS011;2731;50.754;12.990;2022-07-15T13:28:59;4.78;;;1.35;;
5416;SDS011;2731;50.754;12.990;2022-07-15T13:31:24;3.43;;;1.63;;
5416;SDS011;2731;50.754;12.990;2022-07-15T13:33:49;5.40;;;1.70;;
5416;SDS011;2731;50.754;12.990;2022-07-15T13:36:14;5.17;;;1.50;;
5416;SDS011;2731;50.754;12.990;2022-07-15T13:38:40;3.27;;;1.87;;
5416;SDS011;2731;50.754;12.990;2022-07-15T13:41:05;3.03;;;1.20;;
5416;SDS011;2731;50.754;12.990;2022-07-15T13:43:30;3.50;;;1.53;;
5416;SDS011;2731;50.754;12.990;2022-07-15T13:45:55;3.57;;;1.60;;
5416;SDS011;2731;50.754;12.990;2022-07-15T13:48:21;2.47;;;1.25;;
5416;SDS011;2731;50.754;12.990;2022-07-15T13:50:48;3.97;;;1.63;;
5416;SDS011;2731;50.754;12.990;2022-07-15T13:53:33;2.22;;;1.13;;
5416;SDS011;2731;50.754;12.990;2022-07-15T13:55:59;5.45;;;1.25;;
5416;SDS011;2731;50.754;12.990;2022-07-15T13:58:24;4.93;;;1.67;;
5416;SDS011;2731;50.754;12.990;2022-07-15T14:00:50;4.53;;;1.67;;
5416;SDS011;2731;50.754;12.990;2022-07-15T14:03:17;4.38;;;1.30;;
5416;SDS011;2731;50.754;12.990;2022-07-15T14:05:43;2.85;;;1.50;;
5416;SDS011;2731;50.754;12.990;2022-07-15T14:08:10;3.10;;;2.00;;
5416;SDS011;2731;50.754;12.990;2022-07-15T14:10:36;3.50;;;1.50;;
5416;SDS011;2731;50.754;12.990;2022-07-15T14:13:02;2.70;;;1.30;;
5416;SDS011;2731;50.754;12.990;2022-07-15T14:15:27;3.90;;;1.10;;
5416;SDS011;2731;50.754;12.990;2022-07-15T14:17:53;5.25;;;1.38;;
5416;SDS011;2731;50.754;12.990;2022-07-15T14:20:18;1.73;;;1.15;;
5416;SDS011;2731;50.754;12.990;2022-07-15T14:22:44;2.08;;;1.23;;
5416;SDS011;2731;50.754;12.990;2022-07-15T14:25:09;4.28;;;1.20;;
5416;SDS011;2731;50.754;12.990;2022-07-15T14:27:35;2.45;;;1.23;;
5416;SDS011;2731;50.754;12.990;2022-07-15T14:30:01;3.53;;;1.50;;
5416;SDS011;2731;50.754;12.990;2022-07-15T14:32:26;3.45;;;1.08;;
5416;SDS011;2731;50.754;12.990;2022-07-15T14:34:51;2.75;;;1.13;;
5416;SDS011;2731;50.754;12.990;2022-07-15T14:37:17;4.82;;;1.25;;
5416;SDS011;2731;50.754;12.990;2022-07-15T14:39:42;2.92;;;1.38;;
5416;SDS011;2731;50.754;12.990;2022-07-15T14:42:08;7.10;;;1.23;;
5416;SDS011;2731;50.754;12.990;2022-07-15T14:44:33;4.85;;;1.48;;
5416;SDS011;2731;50.754;12.990;2022-07-15T14:46:58;3.95;;;1.20;;
5416;SDS011;2731;50.754;12.990;2022-07-15T14:49:24;2.17;;;1.08;;
5416;SDS011;2731;50.754;12.990;2022-07-15T14:51:49;7.40;;;1.30;;
5416;SDS011;2731;50.754;12.990;2022-07-15T14:54:15;2.92;;;1.00;;
5416;SDS011;2731;50.754;12.990;2022-07-15T14:56:40;6.47;;;1.65;;
5416;SDS011;2731;50.754;12.990;2022-07-15T14:59:06;2.05;;;1.30;;
5416;SDS011;2731;50.754;12.990;2022-07-15T15:01:31;2.88;;;1.33;;
5416;SDS011;2731;50.754;12.990;2022-07-15T15:03:56;2.20;;;1.30;;
5416;SDS011;2731;50.754;12.990;2022-07-15T15:06:22;4.28;;;1.17;;
5416;SDS011;2731;50.754;12.990;2022-07-15T15:08:47;2.47;;;1.27;;
5416;SDS011;2731;50.754;12.990;2022-07-15T15:11:12;4.00;;;1.20;;
5416;SDS011;2731;50.754;12.990;2022-07-15T15:13:38;3.57;;;1.13;;
5416;SDS011;2731;50.754;12.990;2022-07-15T15:16:03;2.75;;;1.08;;
5416;SDS011;2731;50.754;12.990;2022-07-15T15:18:28;2.50;;;1.33;;
5416;SDS011;2731;50.754;12.990;2022-07-15T15:20:54;3.58;;;1.45;;
5416;SDS011;2731;50.754;12.990;2022-07-15T15:23:19;4.75;;;1.25;;
5416;SDS011;2731;50.754;12.990;2022-07-15T15:25:45;2.75;;;1.30;;
5416;SDS011;2731;50.754;12.990;2022-07-15T15:28:29;2.20;;;1.00;;
5416;SDS011;2731;50.754;12.990;2022-07-15T15:30:55;3.35;;;1.65;;
5416;SDS011;2731;50.754;12.990;2022-07-15T15:33:20;6.57;;;1.48;;
5416;SDS011;2731;50.754;12.990;2022-07-15T15:35:46;5.23;;;1.20;;
5416;SDS011;2731;50.754;12.990;2022-07-15T15:38:11;3.97;;;1.40;;
5416;SDS011;2731;50.754;12.990;2022-07-15T15:40:36;5.17;;;1.97;;
5416;SDS011;2731;50.754;12.990;2022-07-15T15:43:02;5.20;;;1.90;;
5416;SDS011;2731;50.754;12.990;2022-07-15T15:45:28;3.45;;;1.55;;
5416;SDS011;2731;50.754;12.990;2022-07-15T15:47:54;2.45;;;1.45;;